Main page
METAR-TAF:

METAR-TAF

Airports :

Zagreb Airport

Zagreb, Croatia

latitude: 45-44N, longitude: 016-04E, elevation: 106 m

Current weather observation

The report was made 38 minutes ago, at 23:00 UTC
Calm wind
Temperature 17°C
Humidity 88%
Pressure 1017 hPa
Visibility 10 km or more
no clouds below 1500 m and no cumulonimbus

METAR: LDZA 162300Z 00000KT CAVOK 17/15 Q1017 NOSIG

Time: 01:38 (23:38 UTC)

Forecast

The report was made 6 hours and 13 minutes ago, at 17:25 UTC
Forecast valid from 16 at 18 UTC to 17 at 18 UTC
Wind 4 kt from the Northeast
Visibility 10 km or more
no clouds below 1500 m and no cumulonimbus
Probability 30% :
Temporary
from 17 at 13 UTC to 17 at 18 UTC
Wind 8 kt from the Northeast

TAF: LDZA 161725Z 1618/1718 04004KT CAVOK TX31/1715Z TN16/1703Z PROB30 TEMPO 1713/1718 04008KT

Weather observations and forecasts of more than 4000 airports (METAR and TAF reports).

The available stations are represented by yellow and red dots on the map.

Hover mouse over dot to see the name of the station.

Then click to see weather observations and forecasts.

To change the map : click on the green buttons with a black cross to zoom in, on the green button with a dash to zoom out, or on the green arrows for adjacent maps.


METAR-TAF: